sensor_id;sensor_type;location;lat;lon;timestamp;P1;durP1;ratioP1;P2;durP2;ratioP2
16075;SDS011;8142;48.242;11.644;2023-05-07T00:00:00;5.00;;;4.23;;
16075;SDS011;8142;48.242;11.644;2023-05-07T00:02:26;5.77;;;4.80;;
16075;SDS011;8142;48.242;11.644;2023-05-07T00:04:52;7.80;;;5.33;;
16075;SDS011;8142;48.242;11.644;2023-05-07T00:07:18;6.63;;;4.70;;
16075;SDS011;8142;48.242;11.644;2023-05-07T00:09:43;5.70;;;4.47;;
16075;SDS011;8142;48.242;11.644;2023-05-07T00:12:09;6.67;;;4.07;;
16075;SDS011;8142;48.242;11.644;2023-05-07T00:14:35;4.97;;;4.00;;
16075;SDS011;8142;48.242;11.644;2023-05-07T00:17:01;4.93;;;3.70;;
16075;SDS011;8142;48.242;11.644;2023-05-07T00:19:27;6.00;;;4.33;;
16075;SDS011;8142;48.242;11.644;2023-05-07T00:21:53;8.03;;;4.70;;
16075;SDS011;8142;48.242;11.644;2023-05-07T00:24:19;5.80;;;4.27;;
16075;SDS011;8142;48.242;11.644;2023-05-07T00:26:45;6.17;;;4.40;;
16075;SDS011;8142;48.242;11.644;2023-05-07T00:29:11;4.80;;;4.33;;
16075;SDS011;8142;48.242;11.644;2023-05-07T00:31:37;5.17;;;4.33;;
16075;SDS011;8142;48.242;11.644;2023-05-07T00:34:03;7.03;;;4.50;;
16075;SDS011;8142;48.242;11.644;2023-05-07T00:36:28;6.47;;;4.30;;
16075;SDS011;8142;48.242;11.644;2023-05-07T00:38:56;7.20;;;4.80;;
16075;SDS011;8142;48.242;11.644;2023-05-07T00:41:22;4.93;;;4.10;;
16075;SDS011;8142;48.242;11.644;2023-05-07T00:43:48;5.83;;;4.20;;
16075;SDS011;8142;48.242;11.644;2023-05-07T00:46:16;4.67;;;4.10;;
16075;SDS011;8142;48.242;11.644;2023-05-07T00:48:45;5.30;;;4.80;;
16075;SDS011;8142;48.242;11.644;2023-05-07T00:51:11;4.90;;;4.50;;
16075;SDS011;8142;48.242;11.644;2023-05-07T00:53:37;4.93;;;4.40;;
16075;SDS011;8142;48.242;11.644;2023-05-07T00:56:04;6.40;;;4.60;;
16075;SDS011;8142;48.242;11.644;2023-05-07T00:58:32;6.03;;;4.83;;
16075;SDS011;8142;48.242;11.644;2023-05-07T01:00:58;10.13;;;4.90;;
16075;SDS011;8142;48.242;11.644;2023-05-07T01:03:25;7.00;;;4.90;;
16075;SDS011;8142;48.242;11.644;2023-05-07T01:05:51;5.20;;;4.70;;
16075;SDS011;8142;48.242;11.644;2023-05-07T01:08:19;6.87;;;4.60;;
16075;SDS011;8142;48.242;11.644;2023-05-07T01:10:47;7.47;;;4.40;;
16075;SDS011;8142;48.242;11.644;2023-05-07T01:13:12;6.80;;;4.50;;
16075;SDS011;8142;48.242;11.644;2023-05-07T01:15:39;4.43;;;3.73;;
16075;SDS011;8142;48.242;11.644;2023-05-07T01:18:06;4.87;;;3.70;;
16075;SDS011;8142;48.242;11.644;2023-05-07T01:20:32;5.30;;;4.70;;
16075;SDS011;8142;48.242;11.644;2023-05-07T01:22:58;5.03;;;4.53;;
16075;SDS011;8142;48.242;11.644;2023-05-07T01:25:26;6.20;;;4.40;;
16075;SDS011;8142;48.242;11.644;2023-05-07T01:27:52;5.40;;;4.43;;
16075;SDS011;8142;48.242;11.644;2023-05-07T01:30:18;6.97;;;4.70;;
16075;SDS011;8142;48.242;11.644;2023-05-07T01:33:20;5.13;;;4.63;;
16075;SDS011;8142;48.242;11.644;2023-05-07T01:35:41;8.20;;;4.53;;
16075;SDS011;8142;48.242;11.644;2023-05-07T01:38:10;6.53;;;4.60;;
16075;SDS011;8142;48.242;11.644;2023-05-07T01:40:37;5.40;;;4.90;;
16075;SDS011;8142;48.242;11.644;2023-05-07T01:43:03;7.73;;;5.30;;
16075;SDS011;8142;48.242;11.644;2023-05-07T01:45:30;4.53;;;4.13;;
16075;SDS011;8142;48.242;11.644;2023-05-07T01:47:57;5.30;;;4.47;;
16075;SDS011;8142;48.242;11.644;2023-05-07T01:50:24;6.20;;;5.20;;
16075;SDS011;8142;48.242;11.644;2023-05-07T01:52:51;6.67;;;5.30;;
16075;SDS011;8142;48.242;11.644;2023-05-07T01:55:17;8.07;;;5.47;;
16075;SDS011;8142;48.242;11.644;2023-05-07T01:57:43;8.27;;;5.67;;
16075;SDS011;8142;48.242;11.644;2023-05-07T02:00:11;6.40;;;5.70;;
16075;SDS011;8142;48.242;11.644;2023-05-07T02:02:37;6.73;;;5.57;;
16075;SDS011;8142;48.242;11.644;2023-05-07T02:05:03;5.90;;;5.27;;
16075;SDS011;8142;48.242;11.644;2023-05-07T02:07:30;6.87;;;5.70;;
16075;SDS011;8142;48.242;11.644;2023-05-07T02:09:55;8.10;;;5.30;;
16075;SDS011;8142;48.242;11.644;2023-05-07T02:12:22;8.70;;;5.47;;
16075;SDS011;8142;48.242;11.644;2023-05-07T02:14:48;5.93;;;5.00;;
16075;SDS011;8142;48.242;11.644;2023-05-07T02:17:14;5.80;;;4.50;;
16075;SDS011;8142;48.242;11.644;2023-05-07T02:19:40;9.30;;;6.00;;
16075;SDS011;8142;48.242;11.644;2023-05-07T02:22:06;6.93;;;5.50;;
16075;SDS011;8142;48.242;11.644;2023-05-07T02:24:33;8.40;;;6.50;;
16075;SDS011;8142;48.242;11.644;2023-05-07T02:26:58;8.13;;;6.17;;
16075;SDS011;8142;48.242;11.644;2023-05-07T02:29:25;8.97;;;6.27;;
16075;SDS011;8142;48.242;11.644;2023-05-07T02:31:50;7.83;;;5.67;;
16075;SDS011;8142;48.242;11.644;2023-05-07T02:34:18;7.37;;;5.70;;
16075;SDS011;8142;48.242;11.644;2023-05-07T02:36:44;11.13;;;5.90;;
16075;SDS011;8142;48.242;11.644;2023-05-07T02:39:11;7.83;;;5.50;;
16075;SDS011;8142;48.242;11.644;2023-05-07T02:41:37;9.00;;;6.10;;
16075;SDS011;8142;48.242;11.644;2023-05-07T02:44:03;7.67;;;5.73;;
16075;SDS011;8142;48.242;11.644;2023-05-07T02:46:29;5.20;;;4.40;;
16075;SDS011;8142;48.242;11.644;2023-05-07T02:48:55;6.67;;;5.10;;
16075;SDS011;8142;48.242;11.644;2023-05-07T02:51:22;6.63;;;5.43;;
16075;SDS011;8142;48.242;11.644;2023-05-07T02:53:48;6.57;;;5.70;;
16075;SDS011;8142;48.242;11.644;2023-05-07T02:56:14;6.30;;;5.70;;
16075;SDS011;8142;48.242;11.644;2023-05-07T02:58:40;5.87;;;5.27;;
16075;SDS011;8142;48.242;11.644;2023-05-07T03:01:07;6.07;;;5.47;;
16075;SDS011;8142;48.242;11.644;2023-05-07T03:03:33;6.47;;;5.87;;
16075;SDS011;8142;48.242;11.644;2023-05-07T03:05:59;8.97;;;7.07;;
16075;SDS011;8142;48.242;11.644;2023-05-07T03:08:25;7.70;;;6.80;;
16075;SDS011;8142;48.242;11.644;2023-05-07T03:10:51;8.47;;;6.00;;
16075;SDS011;8142;48.242;11.644;2023-05-07T03:13:17;7.93;;;5.90;;
16075;SDS011;8142;48.242;11.644;2023-05-07T03:15:43;5.93;;;4.63;;
16075;SDS011;8142;48.242;11.644;2023-05-07T03:18:09;6.17;;;5.23;;
16075;SDS011;8142;48.242;11.644;2023-05-07T03:20:35;6.73;;;5.73;;
16075;SDS011;8142;48.242;11.644;2023-05-07T03:23:01;7.10;;;5.70;;
16075;SDS011;8142;48.242;11.644;2023-05-07T03:25:28;6.80;;;4.93;;
16075;SDS011;8142;48.242;11.644;2023-05-07T03:27:55;5.73;;;4.90;;
16075;SDS011;8142;48.242;11.644;2023-05-07T03:30:21;6.37;;;5.43;;
16075;SDS011;8142;48.242;11.644;2023-05-07T03:32:47;9.37;;;6.60;;
16075;SDS011;8142;48.242;11.644;2023-05-07T03:35:13;9.60;;;5.87;;
16075;SDS011;8142;48.242;11.644;2023-05-07T03:37:39;8.40;;;6.50;;
16075;SDS011;8142;48.242;11.644;2023-05-07T03:40:06;8.20;;;5.83;;
16075;SDS011;8142;48.242;11.644;2023-05-07T03:42:35;8.73;;;5.97;;
16075;SDS011;8142;48.242;11.644;2023-05-07T03:45:01;5.57;;;4.70;;
16075;SDS011;8142;48.242;11.644;2023-05-07T03:47:27;7.23;;;5.43;;
16075;SDS011;8142;48.242;11.644;2023-05-07T03:49:53;9.97;;;6.47;;
16075;SDS011;8142;48.242;11.644;2023-05-07T03:52:20;7.50;;;6.50;;
16075;SDS011;8142;48.242;11.644;2023-05-07T03:54:49;8.20;;;6.17;;
16075;SDS011;8142;48.242;11.644;2023-05-07T03:57:16;7.13;;;6.03;;
16075;SDS011;8142;48.242;11.644;2023-05-07T03:59:41;6.37;;;5.77;;
16075;SDS011;8142;48.242;11.644;2023-05-07T04:02:07;6.63;;;5.73;;
16075;SDS011;8142;48.242;11.644;2023-05-07T04:04:33;6.57;;;5.53;;
16075;SDS011;8142;48.242;11.644;2023-05-07T04:06:59;6.80;;;6.10;;
16075;SDS011;8142;48.242;11.644;2023-05-07T04:09:25;6.63;;;5.30;;
16075;SDS011;8142;48.242;11.644;2023-05-07T04:11:51;5.93;;;5.33;;
16075;SDS011;8142;48.242;11.644;2023-05-07T04:14:17;6.10;;;5.43;;
16075;SDS011;8142;48.242;11.644;2023-05-07T04:16:43;9.00;;;6.07;;
16075;SDS011;8142;48.242;11.644;2023-05-07T04:19:08;7.00;;;5.90;;
16075;SDS011;8142;48.242;11.644;2023-05-07T04:21:34;9.43;;;6.37;;
16075;SDS011;8142;48.242;11.644;2023-05-07T04:24:00;9.17;;;6.30;;
16075;SDS011;8142;48.242;11.644;2023-05-07T04:26:28;7.07;;;6.00;;
16075;SDS011;8142;48.242;11.644;2023-05-07T04:28:54;7.17;;;5.80;;
16075;SDS011;8142;48.242;11.644;2023-05-07T04:31:20;9.47;;;6.90;;
16075;SDS011;8142;48.242;11.644;2023-05-07T04:33:46;9.33;;;7.50;;
16075;SDS011;8142;48.242;11.644;2023-05-07T04:36:12;8.93;;;6.30;;
16075;SDS011;8142;48.242;11.644;2023-05-07T04:38:38;8.37;;;6.70;;
16075;SDS011;8142;48.242;11.644;2023-05-07T04:41:04;8.13;;;7.27;;
16075;SDS011;8142;48.242;11.644;2023-05-07T04:43:31;9.43;;;8.00;;
16075;SDS011;8142;48.242;11.644;2023-05-07T04:45:57;10.63;;;8.87;;
16075;SDS011;8142;48.242;11.644;2023-05-07T04:48:23;9.37;;;8.07;;
16075;SDS011;8142;48.242;11.644;2023-05-07T04:50:49;9.13;;;7.90;;
16075;SDS011;8142;48.242;11.644;2023-05-07T04:53:16;10.80;;;8.40;;
16075;SDS011;8142;48.242;11.644;2023-05-07T04:55:43;11.07;;;9.20;;
16075;SDS011;8142;48.242;11.644;2023-05-07T04:58:10;12.40;;;10.03;;
16075;SDS011;8142;48.242;11.644;2023-05-07T05:00:37;13.13;;;11.00;;
16075;SDS011;8142;48.242;11.644;2023-05-07T05:03:04;11.83;;;9.60;;
16075;SDS011;8142;48.242;11.644;2023-05-07T05:05:30;11.03;;;8.67;;
16075;SDS011;8142;48.242;11.644;2023-05-07T05:07:56;11.63;;;8.57;;
16075;SDS011;8142;48.242;11.644;2023-05-07T05:10:22;9.83;;;8.37;;
16075;SDS011;8142;48.242;11.644;2023-05-07T05:12:48;10.90;;;9.17;;
16075;SDS011;8142;48.242;11.644;2023-05-07T05:15:13;11.27;;;9.70;;
16075;SDS011;8142;48.242;11.644;2023-05-07T05:17:40;11.67;;;10.07;;
16075;SDS011;8142;48.242;11.644;2023-05-07T05:20:06;13.20;;;10.27;;
16075;SDS011;8142;48.242;11.644;2023-05-07T05:22:32;11.40;;;10.20;;
16075;SDS011;8142;48.242;11.644;2023-05-07T05:24:58;12.33;;;11.00;;
16075;SDS011;8142;48.242;11.644;2023-05-07T05:27:24;13.37;;;11.37;;
16075;SDS011;8142;48.242;11.644;2023-05-07T05:29:49;12.20;;;10.90;;
16075;SDS011;8142;48.242;11.644;2023-05-07T05:32:15;14.03;;;11.00;;
16075;SDS011;8142;48.242;11.644;2023-05-07T05:34:41;11.90;;;9.60;;
16075;SDS011;8142;48.242;11.644;2023-05-07T05:37:07;10.50;;;8.83;;
16075;SDS011;8142;48.242;11.644;2023-05-07T05:39:33;10.00;;;8.97;;
16075;SDS011;8142;48.242;11.644;2023-05-07T05:41:59;8.93;;;8.00;;
16075;SDS011;8142;48.242;11.644;2023-05-07T05:44:25;8.10;;;7.30;;
16075;SDS011;8142;48.242;11.644;2023-05-07T05:46:51;8.30;;;7.20;;
16075;SDS011;8142;48.242;11.644;2023-05-07T05:49:16;7.63;;;6.83;;
16075;SDS011;8142;48.242;11.644;2023-05-07T05:51:42;7.37;;;6.67;;
16075;SDS011;8142;48.242;11.644;2023-05-07T05:54:08;7.27;;;5.83;;
16075;SDS011;8142;48.242;11.644;2023-05-07T05:56:34;7.00;;;6.30;;
16075;SDS011;8142;48.242;11.644;2023-05-07T05:59:02;7.47;;;6.10;;
16075;SDS011;8142;48.242;11.644;2023-05-07T06:01:28;6.30;;;5.70;;
16075;SDS011;8142;48.242;11.644;2023-05-07T06:03:54;8.50;;;5.70;;
16075;SDS011;8142;48.242;11.644;2023-05-07T06:06:20;7.80;;;5.50;;
16075;SDS011;8142;48.242;11.644;2023-05-07T06:08:45;7.63;;;5.33;;
16075;SDS011;8142;48.242;11.644;2023-05-07T06:11:11;6.83;;;5.20;;
16075;SDS011;8142;48.242;11.644;2023-05-07T06:13:37;6.60;;;5.03;;
16075;SDS011;8142;48.242;11.644;2023-05-07T06:16:03;5.70;;;4.80;;
16075;SDS011;8142;48.242;11.644;2023-05-07T06:18:29;5.90;;;5.37;;
16075;SDS011;8142;48.242;11.644;2023-05-07T06:20:55;6.57;;;5.40;;
16075;SDS011;8142;48.242;11.644;2023-05-07T06:23:21;7.20;;;5.17;;
16075;SDS011;8142;48.242;11.644;2023-05-07T06:25:50;5.53;;;5.03;;
16075;SDS011;8142;48.242;11.644;2023-05-07T06:28:16;5.83;;;5.23;;
16075;SDS011;8142;48.242;11.644;2023-05-07T06:30:42;5.40;;;4.90;;
16075;SDS011;8142;48.242;11.644;2023-05-07T06:33:08;6.63;;;5.73;;
16075;SDS011;8142;48.242;11.644;2023-05-07T06:35:34;5.90;;;5.30;;
16075;SDS011;8142;48.242;11.644;2023-05-07T06:38:00;7.20;;;5.40;;
16075;SDS011;8142;48.242;11.644;2023-05-07T06:40:26;5.97;;;5.33;;
16075;SDS011;8142;48.242;11.644;2023-05-07T06:42:52;5.50;;;5.00;;
16075;SDS011;8142;48.242;11.644;2023-05-07T06:45:19;5.80;;;4.93;;
16075;SDS011;8142;48.242;11.644;2023-05-07T06:47:45;6.10;;;4.93;;
16075;SDS011;8142;48.242;11.644;2023-05-07T06:50:11;5.37;;;4.87;;
16075;SDS011;8142;48.242;11.644;2023-05-07T06:52:37;6.00;;;5.40;;
16075;SDS011;8142;48.242;11.644;2023-05-07T06:55:03;5.53;;;4.60;;
16075;SDS011;8142;48.242;11.644;2023-05-07T06:57:29;5.17;;;4.67;;
16075;SDS011;8142;48.242;11.644;2023-05-07T06:59:55;6.40;;;4.70;;
16075;SDS011;8142;48.242;11.644;2023-05-07T07:02:21;5.23;;;4.60;;
16075;SDS011;8142;48.242;11.644;2023-05-07T07:04:47;7.77;;;4.93;;
16075;SDS011;8142;48.242;11.644;2023-05-07T07:07:13;6.43;;;4.20;;
16075;SDS011;8142;48.242;11.644;2023-05-07T07:09:38;4.87;;;4.27;;
16075;SDS011;8142;48.242;11.644;2023-05-07T07:12:05;5.00;;;4.23;;
16075;SDS011;8142;48.242;11.644;2023-05-07T07:14:31;5.43;;;4.20;;
16075;SDS011;8142;48.242;11.644;2023-05-07T07:16:56;5.60;;;4.17;;
16075;SDS011;8142;48.242;11.644;2023-05-07T07:19:22;6.50;;;4.77;;
16075;SDS011;8142;48.242;11.644;2023-05-07T07:21:48;4.93;;;4.40;;
16075;SDS011;8142;48.242;11.644;2023-05-07T07:24:14;6.30;;;4.00;;
16075;SDS011;8142;48.242;11.644;2023-05-07T07:26:46;4.33;;;3.93;;
16075;SDS011;8142;48.242;11.644;2023-05-07T07:29:12;5.20;;;4.17;;
16075;SDS011;8142;48.242;11.644;2023-05-07T07:31:38;4.33;;;3.93;;
16075;SDS011;8142;48.242;11.644;2023-05-07T07:34:04;5.70;;;4.40;;
16075;SDS011;8142;48.242;11.644;2023-05-07T07:36:30;5.70;;;4.43;;
16075;SDS011;8142;48.242;11.644;2023-05-07T07:38:56;5.10;;;4.50;;
16075;SDS011;8142;48.242;11.644;2023-05-07T07:41:22;6.83;;;5.20;;
16075;SDS011;8142;48.242;11.644;2023-05-07T07:43:47;5.33;;;4.83;;
16075;SDS011;8142;48.242;11.644;2023-05-07T07:46:13;5.37;;;4.63;;
16075;SDS011;8142;48.242;11.644;2023-05-07T07:48:39;5.70;;;4.00;;
16075;SDS011;8142;48.242;11.644;2023-05-07T07:51:05;5.97;;;4.40;;
16075;SDS011;8142;48.242;11.644;2023-05-07T07:53:31;5.10;;;4.10;;
16075;SDS011;8142;48.242;11.644;2023-05-07T07:55:56;3.93;;;3.63;;
16075;SDS011;8142;48.242;11.644;2023-05-07T07:58:22;5.30;;;4.00;;
16075;SDS011;8142;48.242;11.644;2023-05-07T08:00:50;5.80;;;4.30;;
16075;SDS011;8142;48.242;11.644;2023-05-07T08:03:16;4.80;;;4.40;;
16075;SDS011;8142;48.242;11.644;2023-05-07T08:05:42;3.73;;;3.43;;
16075;SDS011;8142;48.242;11.644;2023-05-07T08:08:08;5.37;;;4.60;;
16075;SDS011;8142;48.242;11.644;2023-05-07T08:10:34;5.10;;;4.60;;
16075;SDS011;8142;48.242;11.644;2023-05-07T08:13:03;5.37;;;4.87;;
16075;SDS011;8142;48.242;11.644;2023-05-07T08:15:29;5.30;;;4.80;;
16075;SDS011;8142;48.242;11.644;2023-05-07T08:17:55;5.30;;;4.60;;
16075;SDS011;8142;48.242;11.644;2023-05-07T08:20:22;5.10;;;4.60;;
16075;SDS011;8142;48.242;11.644;2023-05-07T08:22:49;5.63;;;5.03;;
16075;SDS011;8142;48.242;11.644;2023-05-07T08:25:14;5.67;;;4.67;;
16075;SDS011;8142;48.242;11.644;2023-05-07T08:27:40;4.20;;;3.47;;
16075;SDS011;8142;48.242;11.644;2023-05-07T08:30:06;4.73;;;4.07;;
16075;SDS011;8142;48.242;11.644;2023-05-07T08:32:33;4.47;;;4.07;;
16075;SDS011;8142;48.242;11.644;2023-05-07T08:34:59;4.27;;;3.07;;
16075;SDS011;8142;48.242;11.644;2023-05-07T08:37:25;4.27;;;3.40;;
16075;SDS011;8142;48.242;11.644;2023-05-07T08:39:51;5.03;;;3.60;;
16075;SDS011;8142;48.242;11.644;2023-05-07T08:42:17;3.73;;;3.37;;
16075;SDS011;8142;48.242;11.644;2023-05-07T08:44:45;3.47;;;3.17;;
16075;SDS011;8142;48.242;11.644;2023-05-07T08:47:13;4.10;;;3.63;;
16075;SDS011;8142;48.242;11.644;2023-05-07T08:49:39;5.27;;;3.40;;
16075;SDS011;8142;48.242;11.644;2023-05-07T08:52:05;4.50;;;4.10;;
16075;SDS011;8142;48.242;11.644;2023-05-07T08:54:31;4.60;;;3.83;;
16075;SDS011;8142;48.242;11.644;2023-05-07T08:56:58;5.03;;;4.27;;
16075;SDS011;8142;48.242;11.644;2023-05-07T08:59:24;4.93;;;3.73;;
16075;SDS011;8142;48.242;11.644;2023-05-07T09:01:51;4.87;;;4.30;;
16075;SDS011;8142;48.242;11.644;2023-05-07T09:04:17;4.83;;;4.33;;
16075;SDS011;8142;48.242;11.644;2023-05-07T09:06:43;4.90;;;4.30;;
16075;SDS011;8142;48.242;11.644;2023-05-07T09:09:09;4.50;;;4.10;;
16075;SDS011;8142;48.242;11.644;2023-05-07T09:11:34;4.43;;;3.97;;
16075;SDS011;8142;48.242;11.644;2023-05-07T09:14:00;5.43;;;4.93;;
16075;SDS011;8142;48.242;11.644;2023-05-07T09:16:28;5.33;;;4.80;;
16075;SDS011;8142;48.242;11.644;2023-05-07T09:18:57;6.23;;;5.63;;
16075;SDS011;8142;48.242;11.644;2023-05-07T09:21:24;7.80;;;5.43;;
16075;SDS011;8142;48.242;11.644;2023-05-07T09:23:53;5.63;;;4.60;;
16075;SDS011;8142;48.242;11.644;2023-05-07T09:26:23;5.57;;;4.37;;
16075;SDS011;8142;48.242;11.644;2023-05-07T09:28:49;5.50;;;4.50;;
16075;SDS011;8142;48.242;11.644;2023-05-07T09:31:16;5.23;;;4.73;;
16075;SDS011;8142;48.242;11.644;2023-05-07T09:33:42;5.00;;;4.50;;
16075;SDS011;8142;48.242;11.644;2023-05-07T09:36:08;4.77;;;4.37;;
16075;SDS011;8142;48.242;11.644;2023-05-07T09:38:35;3.97;;;3.50;;
16075;SDS011;8142;48.242;11.644;2023-05-07T09:43:33;4.10;;;3.40;;
16075;SDS011;8142;48.242;11.644;2023-05-07T09:46:02;5.00;;;3.47;;
16075;SDS011;8142;48.242;11.644;2023-05-07T09:48:34;4.87;;;3.10;;
16075;SDS011;8142;48.242;11.644;2023-05-07T09:51:02;7.97;;;3.53;;
16075;SDS011;8142;48.242;11.644;2023-05-07T09:53:30;3.07;;;2.60;;
16075;SDS011;8142;48.242;11.644;2023-05-07T09:55:58;4.70;;;3.60;;
16075;SDS011;8142;48.242;11.644;2023-05-07T09:58:25;3.83;;;3.13;;
16075;SDS011;8142;48.242;11.644;2023-05-07T10:00:52;4.13;;;3.67;;
16075;SDS011;8142;48.242;11.644;2023-05-07T10:03:18;4.33;;;3.20;;
16075;SDS011;8142;48.242;11.644;2023-05-07T10:05:46;4.37;;;2.90;;
16075;SDS011;8142;48.242;11.644;2023-05-07T10:08:12;5.10;;;3.60;;
16075;SDS011;8142;48.242;11.644;2023-05-07T10:10:41;5.50;;;3.40;;
16075;SDS011;8142;48.242;11.644;2023-05-07T10:13:08;5.83;;;3.10;;
16075;SDS011;8142;48.242;11.644;2023-05-07T10:15:36;4.27;;;3.17;;
16075;SDS011;8142;48.242;11.644;2023-05-07T10:18:03;4.03;;;3.63;;
16075;SDS011;8142;48.242;11.644;2023-05-07T10:20:31;5.47;;;3.50;;
16075;SDS011;8142;48.242;11.644;2023-05-07T10:22:59;3.83;;;3.10;;
16075;SDS011;8142;48.242;11.644;2023-05-07T10:25:28;3.80;;;2.70;;
16075;SDS011;8142;48.242;11.644;2023-05-07T10:27:57;3.00;;;2.67;;
16075;SDS011;8142;48.242;11.644;2023-05-07T10:33:10;3.77;;;3.00;;
16075;SDS011;8142;48.242;11.644;2023-05-07T10:35:40;3.80;;;2.80;;
16075;SDS011;8142;48.242;11.644;2023-05-07T10:38:07;3.83;;;3.10;;
16075;SDS011;8142;48.242;11.644;2023-05-07T10:40:34;3.83;;;2.90;;
16075;SDS011;8142;48.242;11.644;2023-05-07T10:43:04;3.10;;;2.80;;
16075;SDS011;8142;48.242;11.644;2023-05-07T10:45:31;3.37;;;2.70;;
16075;SDS011;8142;48.242;11.644;2023-05-07T10:48:13;3.10;;;2.80;;
16075;SDS011;8142;48.242;11.644;2023-05-07T10:50:41;4.00;;;2.63;;
16075;SDS011;8142;48.242;11.644;2023-05-07T10:55:52;4.97;;;2.27;;
16075;SDS011;8142;48.242;11.644;2023-05-07T10:58:43;3.70;;;2.07;;
16075;SDS011;8142;48.242;11.644;2023-05-07T11:01:10;2.63;;;1.67;;
16075;SDS011;8142;48.242;11.644;2023-05-07T11:04:12;2.20;;;1.93;;
16075;SDS011;8142;48.242;11.644;2023-05-07T11:06:40;2.43;;;2.10;;
16075;SDS011;8142;48.242;11.644;2023-05-07T11:09:06;3.73;;;2.23;;
16075;SDS011;8142;48.242;11.644;2023-05-07T11:11:45;2.73;;;2.27;;
16075;SDS011;8142;48.242;11.644;2023-05-07T11:17:11;2.23;;;1.97;;
16075;SDS011;8142;48.242;11.644;2023-05-07T11:19:47;3.07;;;2.10;;
16075;SDS011;8142;48.242;11.644;2023-05-07T11:25:01;1.63;;;1.53;;
16075;SDS011;8142;48.242;11.644;2023-05-07T11:27:28;3.60;;;1.90;;
16075;SDS011;8142;48.242;11.644;2023-05-07T11:29:55;1.93;;;1.80;;
16075;SDS011;8142;48.242;11.644;2023-05-07T11:34:51;2.23;;;1.83;;
16075;SDS011;8142;48.242;11.644;2023-05-07T11:37:18;2.57;;;1.60;;
16075;SDS011;8142;48.242;11.644;2023-05-07T11:39:47;1.63;;;1.53;;
16075;SDS011;8142;48.242;11.644;2023-05-07T11:42:27;2.37;;;1.77;;
16075;SDS011;8142;48.242;11.644;2023-05-07T11:44:54;2.57;;;1.90;;
16075;SDS011;8142;48.242;11.644;2023-05-07T11:47:21;3.00;;;1.60;;
16075;SDS011;8142;48.242;11.644;2023-05-07T11:49:51;2.93;;;1.80;;
16075;SDS011;8142;48.242;11.644;2023-05-07T11:52:18;1.80;;;1.50;;
16075;SDS011;8142;48.242;11.644;2023-05-07T11:54:52;2.83;;;1.60;;
16075;SDS011;8142;48.242;11.644;2023-05-07T11:57:23;3.17;;;1.80;;
16075;SDS011;8142;48.242;11.644;2023-05-07T11:59:53;1.70;;;1.60;;
16075;SDS011;8142;48.242;11.644;2023-05-07T12:02:23;2.23;;;1.70;;
16075;SDS011;8142;48.242;11.644;2023-05-07T12:04:50;4.40;;;1.93;;
16075;SDS011;8142;48.242;11.644;2023-05-07T12:07:19;2.70;;;1.60;;
16075;SDS011;8142;48.242;11.644;2023-05-07T12:09:46;5.27;;;1.70;;
16075;SDS011;8142;48.242;11.644;2023-05-07T12:12:12;3.83;;;1.60;;
16075;SDS011;8142;48.242;11.644;2023-05-07T12:14:43;2.63;;;1.57;;
16075;SDS011;8142;48.242;11.644;2023-05-07T12:17:10;2.47;;;1.43;;
16075;SDS011;8142;48.242;11.644;2023-05-07T12:19:38;1.87;;;1.40;;
16075;SDS011;8142;48.242;11.644;2023-05-07T12:22:07;1.53;;;1.23;;
16075;SDS011;8142;48.242;11.644;2023-05-07T12:24:45;1.70;;;1.60;;
16075;SDS011;8142;48.242;11.644;2023-05-07T12:27:13;2.17;;;1.47;;
16075;SDS011;8142;48.242;11.644;2023-05-07T12:29:39;2.37;;;1.33;;
16075;SDS011;8142;48.242;11.644;2023-05-07T12:32:15;1.83;;;1.40;;
16075;SDS011;8142;48.242;11.644;2023-05-07T12:34:42;3.40;;;1.70;;
16075;SDS011;8142;48.242;11.644;2023-05-07T12:37:08;3.27;;;1.60;;
16075;SDS011;8142;48.242;11.644;2023-05-07T12:39:35;2.73;;;1.40;;
16075;SDS011;8142;48.242;11.644;2023-05-07T12:42:01;1.57;;;1.43;;
16075;SDS011;8142;48.242;11.644;2023-05-07T12:44:34;2.87;;;2.27;;
16075;SDS011;8142;48.242;11.644;2023-05-07T12:47:03;3.80;;;3.17;;
16075;SDS011;8142;48.242;11.644;2023-05-07T12:49:29;3.57;;;2.80;;
16075;SDS011;8142;48.242;11.644;2023-05-07T12:51:55;2.93;;;2.63;;
16075;SDS011;8142;48.242;11.644;2023-05-07T12:54:28;4.27;;;2.70;;
16075;SDS011;8142;48.242;11.644;2023-05-07T12:57:15;3.07;;;2.77;;
16075;SDS011;8142;48.242;11.644;2023-05-07T12:59:45;3.70;;;2.30;;
16075;SDS011;8142;48.242;11.644;2023-05-07T13:02:10;3.63;;;2.70;;
16075;SDS011;8142;48.242;11.644;2023-05-07T13:04:36;2.90;;;2.53;;
16075;SDS011;8142;48.242;11.644;2023-05-07T13:07:02;3.30;;;2.70;;
16075;SDS011;8142;48.242;11.644;2023-05-07T13:09:28;3.30;;;2.90;;
16075;SDS011;8142;48.242;11.644;2023-05-07T13:11:54;3.20;;;2.90;;
16075;SDS011;8142;48.242;11.644;2023-05-07T13:14:20;3.30;;;2.97;;
16075;SDS011;8142;48.242;11.644;2023-05-07T13:16:47;2.93;;;2.60;;
16075;SDS011;8142;48.242;11.644;2023-05-07T13:19:13;3.30;;;2.60;;
16075;SDS011;8142;48.242;11.644;2023-05-07T13:21:39;3.77;;;3.27;;
16075;SDS011;8142;48.242;11.644;2023-05-07T13:24:05;3.50;;;2.87;;
16075;SDS011;8142;48.242;11.644;2023-05-07T13:26:31;3.53;;;3.00;;
16075;SDS011;8142;48.242;11.644;2023-05-07T13:28:57;3.33;;;2.80;;
16075;SDS011;8142;48.242;11.644;2023-05-07T13:31:23;2.83;;;2.60;;
16075;SDS011;8142;48.242;11.644;2023-05-07T13:33:50;4.23;;;3.07;;
16075;SDS011;8142;48.242;11.644;2023-05-07T13:36:16;3.33;;;2.63;;
16075;SDS011;8142;48.242;11.644;2023-05-07T13:38:42;3.10;;;2.77;;
16075;SDS011;8142;48.242;11.644;2023-05-07T13:41:07;3.07;;;2.70;;
16075;SDS011;8142;48.242;11.644;2023-05-07T13:43:33;3.30;;;2.90;;
16075;SDS011;8142;48.242;11.644;2023-05-07T13:45:59;2.50;;;2.30;;
16075;SDS011;8142;48.242;11.644;2023-05-07T13:48:26;3.87;;;3.33;;
16075;SDS011;8142;48.242;11.644;2023-05-07T13:50:52;5.90;;;3.20;;
16075;SDS011;8142;48.242;11.644;2023-05-07T13:53:18;4.23;;;3.20;;
16075;SDS011;8142;48.242;11.644;2023-05-07T13:55:44;5.83;;;3.40;;
16075;SDS011;8142;48.242;11.644;2023-05-07T13:58:10;4.80;;;3.03;;
16075;SDS011;8142;48.242;11.644;2023-05-07T14:00:36;2.90;;;2.60;;
16075;SDS011;8142;48.242;11.644;2023-05-07T14:03:03;3.60;;;2.60;;
16075;SDS011;8142;48.242;11.644;2023-05-07T14:05:30;4.43;;;3.07;;
16075;SDS011;8142;48.242;11.644;2023-05-07T14:07:59;4.87;;;2.47;;
16075;SDS011;8142;48.242;11.644;2023-05-07T14:10:25;2.50;;;2.17;;
16075;SDS011;8142;48.242;11.644;2023-05-07T14:12:51;2.40;;;2.20;;
16075;SDS011;8142;48.242;11.644;2023-05-07T14:15:17;2.23;;;2.03;;
16075;SDS011;8142;48.242;11.644;2023-05-07T14:17:43;2.57;;;2.20;;
16075;SDS011;8142;48.242;11.644;2023-05-07T14:20:10;3.53;;;2.90;;
16075;SDS011;8142;48.242;11.644;2023-05-07T14:22:37;2.83;;;2.53;;
16075;SDS011;8142;48.242;11.644;2023-05-07T14:25:03;3.03;;;2.60;;
16075;SDS011;8142;48.242;11.644;2023-05-07T14:27:29;2.70;;;2.10;;
16075;SDS011;8142;48.242;11.644;2023-05-07T14:29:55;2.60;;;2.20;;
16075;SDS011;8142;48.242;11.644;2023-05-07T14:32:21;2.53;;;2.30;;
16075;SDS011;8142;48.242;11.644;2023-05-07T14:34:47;2.43;;;2.20;;
16075;SDS011;8142;48.242;11.644;2023-05-07T14:37:13;2.83;;;2.10;;
16075;SDS011;8142;48.242;11.644;2023-05-07T14:39:39;2.80;;;2.03;;
16075;SDS011;8142;48.242;11.644;2023-05-07T14:42:05;2.23;;;2.03;;
16075;SDS011;8142;48.242;11.644;2023-05-07T14:44:34;3.60;;;2.43;;
16075;SDS011;8142;48.242;11.644;2023-05-07T14:47:00;3.70;;;2.10;;
16075;SDS011;8142;48.242;11.644;2023-05-07T14:49:26;2.47;;;2.00;;
16075;SDS011;8142;48.242;11.644;2023-05-07T14:51:51;2.60;;;2.20;;
16075;SDS011;8142;48.242;11.644;2023-05-07T14:54:17;2.30;;;2.10;;
16075;SDS011;8142;48.242;11.644;2023-05-07T14:56:43;2.93;;;2.30;;
16075;SDS011;8142;48.242;11.644;2023-05-07T14:59:09;2.33;;;2.03;;